sensor_id;sensor_type;location;lat;lon;timestamp;P1;durP1;ratioP1;P2;durP2;ratioP2
26040;SDS011;13816;53.628;9.950;2022-08-21T00:01:18;11.80;;;6.77;;
26040;SDS011;13816;53.628;9.950;2022-08-21T00:03:48;11.50;;;5.90;;
26040;SDS011;13816;53.628;9.950;2022-08-21T00:06:14;13.77;;;6.90;;
26040;SDS011;13816;53.628;9.950;2022-08-21T00:08:40;9.50;;;6.03;;
26040;SDS011;13816;53.628;9.950;2022-08-21T00:11:06;12.03;;;6.80;;
26040;SDS011;13816;53.628;9.950;2022-08-21T00:13:32;10.67;;;6.50;;
26040;SDS011;13816;53.628;9.950;2022-08-21T00:15:59;16.40;;;6.10;;
26040;SDS011;13816;53.628;9.950;2022-08-21T00:18:25;10.87;;;6.30;;
26040;SDS011;13816;53.628;9.950;2022-08-21T00:20:51;9.30;;;5.67;;
26040;SDS011;13816;53.628;9.950;2022-08-21T00:23:17;9.70;;;5.70;;
26040;SDS011;13816;53.628;9.950;2022-08-21T00:25:44;8.70;;;5.97;;
26040;SDS011;13816;53.628;9.950;2022-08-21T00:28:10;13.00;;;5.27;;
26040;SDS011;13816;53.628;9.950;2022-08-21T00:30:37;11.33;;;6.00;;
26040;SDS011;13816;53.628;9.950;2022-08-21T00:33:03;7.57;;;5.00;;
26040;SDS011;13816;53.628;9.950;2022-08-21T00:35:32;8.97;;;5.43;;
26040;SDS011;13816;53.628;9.950;2022-08-21T00:37:59;14.40;;;5.90;;
26040;SDS011;13816;53.628;9.950;2022-08-21T00:40:28;7.50;;;5.17;;
26040;SDS011;13816;53.628;9.950;2022-08-21T00:42:57;10.60;;;5.97;;
26040;SDS011;13816;53.628;9.950;2022-08-21T00:45:23;8.20;;;4.90;;
26040;SDS011;13816;53.628;9.950;2022-08-21T00:47:50;7.90;;;5.50;;
26040;SDS011;13816;53.628;9.950;2022-08-21T00:50:17;11.77;;;5.17;;
26040;SDS011;13816;53.628;9.950;2022-08-21T00:52:43;6.63;;;4.80;;
26040;SDS011;13816;53.628;9.950;2022-08-21T00:55:29;16.93;;;5.70;;
26040;SDS011;13816;53.628;9.950;2022-08-21T00:58:02;10.70;;;5.80;;
26040;SDS011;13816;53.628;9.950;2022-08-21T01:00:30;7.77;;;5.60;;
26040;SDS011;13816;53.628;9.950;2022-08-21T01:03:00;7.30;;;5.27;;
26040;SDS011;13816;53.628;9.950;2022-08-21T01:05:29;7.47;;;5.30;;
26040;SDS011;13816;53.628;9.950;2022-08-21T01:07:55;12.33;;;6.43;;
26040;SDS011;13816;53.628;9.950;2022-08-21T01:10:24;11.30;;;5.60;;
26040;SDS011;13816;53.628;9.950;2022-08-21T01:12:51;10.80;;;5.60;;
26040;SDS011;13816;53.628;9.950;2022-08-21T01:15:20;10.70;;;6.47;;
26040;SDS011;13816;53.628;9.950;2022-08-21T01:17:48;12.50;;;5.87;;
26040;SDS011;13816;53.628;9.950;2022-08-21T01:20:15;9.90;;;6.20;;
26040;SDS011;13816;53.628;9.950;2022-08-21T01:22:41;8.60;;;6.20;;
26040;SDS011;13816;53.628;9.950;2022-08-21T01:25:08;8.80;;;5.37;;
26040;SDS011;13816;53.628;9.950;2022-08-21T01:27:36;9.93;;;5.93;;
26040;SDS011;13816;53.628;9.950;2022-08-21T01:32:40;9.70;;;5.73;;
26040;SDS011;13816;53.628;9.950;2022-08-21T01:35:07;8.30;;;5.17;;
26040;SDS011;13816;53.628;9.950;2022-08-21T01:37:33;7.60;;;5.43;;
26040;SDS011;13816;53.628;9.950;2022-08-21T01:45:39;6.73;;;4.87;;
26040;SDS011;13816;53.628;9.950;2022-08-21T01:48:05;8.43;;;5.20;;
26040;SDS011;13816;53.628;9.950;2022-08-21T01:50:30;7.60;;;5.17;;
26040;SDS011;13816;53.628;9.950;2022-08-21T01:52:56;9.90;;;4.87;;
26040;SDS011;13816;53.628;9.950;2022-08-21T01:55:34;9.00;;;5.37;;
26040;SDS011;13816;53.628;9.950;2022-08-21T01:58:00;7.93;;;5.57;;
26040;SDS011;13816;53.628;9.950;2022-08-21T02:00:26;7.77;;;4.70;;
26040;SDS011;13816;53.628;9.950;2022-08-21T02:02:52;8.20;;;5.20;;
26040;SDS011;13816;53.628;9.950;2022-08-21T02:05:18;8.53;;;5.20;;
26040;SDS011;13816;53.628;9.950;2022-08-21T02:07:48;8.27;;;5.30;;
26040;SDS011;13816;53.628;9.950;2022-08-21T02:10:18;12.20;;;5.23;;
26040;SDS011;13816;53.628;9.950;2022-08-21T02:12:47;10.93;;;4.40;;
26040;SDS011;13816;53.628;9.950;2022-08-21T02:15:12;7.90;;;5.00;;
26040;SDS011;13816;53.628;9.950;2022-08-21T02:17:44;7.50;;;4.40;;
26040;SDS011;13816;53.628;9.950;2022-08-21T02:20:15;7.60;;;4.60;;
26040;SDS011;13816;53.628;9.950;2022-08-21T02:22:42;7.00;;;4.27;;
26040;SDS011;13816;53.628;9.950;2022-08-21T02:25:08;5.80;;;3.73;;
26040;SDS011;13816;53.628;9.950;2022-08-21T02:27:41;6.03;;;4.00;;
26040;SDS011;13816;53.628;9.950;2022-08-21T02:30:13;6.60;;;4.63;;
26040;SDS011;13816;53.628;9.950;2022-08-21T02:32:42;4.17;;;3.47;;
26040;SDS011;13816;53.628;9.950;2022-08-21T02:35:08;9.60;;;3.90;;
26040;SDS011;13816;53.628;9.950;2022-08-21T02:37:49;4.87;;;3.63;;
26040;SDS011;13816;53.628;9.950;2022-08-21T02:40:17;7.20;;;3.80;;
26040;SDS011;13816;53.628;9.950;2022-08-21T02:42:45;4.03;;;3.57;;
26040;SDS011;13816;53.628;9.950;2022-08-21T02:45:11;5.73;;;3.50;;
26040;SDS011;13816;53.628;9.950;2022-08-21T02:50:30;9.40;;;4.17;;
26040;SDS011;13816;53.628;9.950;2022-08-21T02:52:58;6.53;;;4.23;;
26040;SDS011;13816;53.628;9.950;2022-08-21T02:55:27;8.60;;;4.50;;
26040;SDS011;13816;53.628;9.950;2022-08-21T02:57:55;7.73;;;5.10;;
26040;SDS011;13816;53.628;9.950;2022-08-21T03:00:22;5.70;;;4.97;;
26040;SDS011;13816;53.628;9.950;2022-08-21T03:02:49;10.27;;;5.10;;
26040;SDS011;13816;53.628;9.950;2022-08-21T03:05:16;9.70;;;4.53;;
26040;SDS011;13816;53.628;9.950;2022-08-21T03:07:43;7.97;;;5.07;;
26040;SDS011;13816;53.628;9.950;2022-08-21T03:10:11;8.40;;;4.90;;
26040;SDS011;13816;53.628;9.950;2022-08-21T03:12:38;7.93;;;3.90;;
26040;SDS011;13816;53.628;9.950;2022-08-21T03:15:04;8.57;;;5.00;;
26040;SDS011;13816;53.628;9.950;2022-08-21T03:17:32;9.17;;;4.87;;
26040;SDS011;13816;53.628;9.950;2022-08-21T03:19:58;9.50;;;4.83;;
26040;SDS011;13816;53.628;9.950;2022-08-21T03:22:25;6.93;;;4.33;;
26040;SDS011;13816;53.628;9.950;2022-08-21T03:24:51;7.23;;;4.20;;
26040;SDS011;13816;53.628;9.950;2022-08-21T03:27:16;6.73;;;5.10;;
26040;SDS011;13816;53.628;9.950;2022-08-21T03:29:42;12.87;;;4.90;;
26040;SDS011;13816;53.628;9.950;2022-08-21T03:32:08;6.40;;;4.60;;
26040;SDS011;13816;53.628;9.950;2022-08-21T03:34:35;9.10;;;5.10;;
26040;SDS011;13816;53.628;9.950;2022-08-21T03:37:02;5.87;;;4.13;;
26040;SDS011;13816;53.628;9.950;2022-08-21T03:39:28;13.50;;;4.70;;
26040;SDS011;13816;53.628;9.950;2022-08-21T03:41:54;7.27;;;4.60;;
26040;SDS011;13816;53.628;9.950;2022-08-21T03:44:20;6.60;;;4.07;;
26040;SDS011;13816;53.628;9.950;2022-08-21T03:46:46;6.87;;;4.50;;
26040;SDS011;13816;53.628;9.950;2022-08-21T03:49:11;9.20;;;4.53;;
26040;SDS011;13816;53.628;9.950;2022-08-21T03:51:38;7.57;;;4.53;;
26040;SDS011;13816;53.628;9.950;2022-08-21T03:54:04;10.20;;;4.30;;
26040;SDS011;13816;53.628;9.950;2022-08-21T03:56:30;8.47;;;4.90;;
26040;SDS011;13816;53.628;9.950;2022-08-21T03:58:56;10.07;;;5.53;;
26040;SDS011;13816;53.628;9.950;2022-08-21T04:01:22;6.57;;;4.87;;
26040;SDS011;13816;53.628;9.950;2022-08-21T04:03:47;6.60;;;4.73;;
26040;SDS011;13816;53.628;9.950;2022-08-21T04:06:13;10.53;;;4.73;;
26040;SDS011;13816;53.628;9.950;2022-08-21T04:08:39;9.40;;;4.90;;
26040;SDS011;13816;53.628;9.950;2022-08-21T04:11:08;5.40;;;4.00;;
26040;SDS011;13816;53.628;9.950;2022-08-21T04:13:35;9.27;;;5.00;;
26040;SDS011;13816;53.628;9.950;2022-08-21T04:16:01;9.97;;;5.30;;
26040;SDS011;13816;53.628;9.950;2022-08-21T04:18:27;8.90;;;5.00;;
26040;SDS011;13816;53.628;9.950;2022-08-21T04:20:53;7.87;;;5.20;;
26040;SDS011;13816;53.628;9.950;2022-08-21T04:23:21;9.27;;;5.10;;
26040;SDS011;13816;53.628;9.950;2022-08-21T04:25:47;10.70;;;5.87;;
26040;SDS011;13816;53.628;9.950;2022-08-21T04:28:13;10.27;;;5.50;;
26040;SDS011;13816;53.628;9.950;2022-08-21T04:30:39;8.77;;;4.80;;
26040;SDS011;13816;53.628;9.950;2022-08-21T04:33:05;6.57;;;5.00;;
26040;SDS011;13816;53.628;9.950;2022-08-21T04:35:30;10.73;;;4.83;;
26040;SDS011;13816;53.628;9.950;2022-08-21T04:37:56;7.63;;;5.23;;
26040;SDS011;13816;53.628;9.950;2022-08-21T04:40:23;6.90;;;4.97;;
26040;SDS011;13816;53.628;9.950;2022-08-21T04:42:55;7.87;;;5.10;;
26040;SDS011;13816;53.628;9.950;2022-08-21T04:45:28;9.67;;;5.00;;
26040;SDS011;13816;53.628;9.950;2022-08-21T04:47:56;6.60;;;4.67;;
26040;SDS011;13816;53.628;9.950;2022-08-21T04:53:17;9.73;;;5.97;;
26040;SDS011;13816;53.628;9.950;2022-08-21T04:56:06;8.17;;;4.30;;
26040;SDS011;13816;53.628;9.950;2022-08-21T04:58:36;8.97;;;4.83;;
26040;SDS011;13816;53.628;9.950;2022-08-21T05:01:04;8.80;;;5.00;;
26040;SDS011;13816;53.628;9.950;2022-08-21T05:03:34;8.00;;;4.67;;
26040;SDS011;13816;53.628;9.950;2022-08-21T05:06:03;8.93;;;5.10;;
26040;SDS011;13816;53.628;9.950;2022-08-21T05:08:35;7.00;;;4.70;;
26040;SDS011;13816;53.628;9.950;2022-08-21T05:11:03;6.83;;;4.63;;
26040;SDS011;13816;53.628;9.950;2022-08-21T05:13:29;8.87;;;5.50;;
26040;SDS011;13816;53.628;9.950;2022-08-21T05:15:55;9.77;;;6.07;;
26040;SDS011;13816;53.628;9.950;2022-08-21T05:18:21;9.23;;;5.20;;
26040;SDS011;13816;53.628;9.950;2022-08-21T05:20:47;6.53;;;5.33;;
26040;SDS011;13816;53.628;9.950;2022-08-21T05:23:13;8.60;;;5.70;;
26040;SDS011;13816;53.628;9.950;2022-08-21T05:25:40;10.03;;;6.07;;
26040;SDS011;13816;53.628;9.950;2022-08-21T05:28:06;9.13;;;6.23;;
26040;SDS011;13816;53.628;9.950;2022-08-21T05:30:32;10.23;;;5.87;;
26040;SDS011;13816;53.628;9.950;2022-08-21T05:33:00;6.73;;;5.70;;
26040;SDS011;13816;53.628;9.950;2022-08-21T05:35:27;7.33;;;6.27;;
26040;SDS011;13816;53.628;9.950;2022-08-21T05:37:53;9.77;;;6.43;;
26040;SDS011;13816;53.628;9.950;2022-08-21T05:40:20;9.30;;;6.60;;
26040;SDS011;13816;53.628;9.950;2022-08-21T05:42:46;11.03;;;6.60;;
26040;SDS011;13816;53.628;9.950;2022-08-21T05:45:12;12.33;;;5.70;;
26040;SDS011;13816;53.628;9.950;2022-08-21T05:47:37;9.60;;;6.10;;
26040;SDS011;13816;53.628;9.950;2022-08-21T05:50:04;8.50;;;5.70;;
26040;SDS011;13816;53.628;9.950;2022-08-21T05:52:30;8.17;;;6.23;;
26040;SDS011;13816;53.628;9.950;2022-08-21T05:54:56;11.43;;;5.97;;
26040;SDS011;13816;53.628;9.950;2022-08-21T05:57:22;9.53;;;5.50;;
26040;SDS011;13816;53.628;9.950;2022-08-21T05:59:48;10.63;;;6.37;;
26040;SDS011;13816;53.628;9.950;2022-08-21T06:02:16;15.83;;;7.80;;
26040;SDS011;13816;53.628;9.950;2022-08-21T06:04:43;9.30;;;6.90;;
26040;SDS011;13816;53.628;9.950;2022-08-21T06:07:09;9.30;;;6.70;;
26040;SDS011;13816;53.628;9.950;2022-08-21T06:09:34;14.63;;;6.87;;
26040;SDS011;13816;53.628;9.950;2022-08-21T06:12:05;10.87;;;6.83;;
26040;SDS011;13816;53.628;9.950;2022-08-21T06:14:33;13.17;;;6.30;;
26040;SDS011;13816;53.628;9.950;2022-08-21T06:17:03;12.43;;;5.70;;
26040;SDS011;13816;53.628;9.950;2022-08-21T06:19:33;11.17;;;5.63;;
26040;SDS011;13816;53.628;9.950;2022-08-21T06:21:59;17.40;;;6.60;;
26040;SDS011;13816;53.628;9.950;2022-08-21T06:24:25;12.40;;;5.43;;
26040;SDS011;13816;53.628;9.950;2022-08-21T06:26:52;8.93;;;5.60;;
26040;SDS011;13816;53.628;9.950;2022-08-21T06:29:18;12.10;;;6.27;;
26040;SDS011;13816;53.628;9.950;2022-08-21T06:31:45;12.00;;;6.43;;
26040;SDS011;13816;53.628;9.950;2022-08-21T06:34:12;9.77;;;5.93;;
26040;SDS011;13816;53.628;9.950;2022-08-21T06:36:38;15.23;;;6.10;;
26040;SDS011;13816;53.628;9.950;2022-08-21T06:39:04;9.00;;;5.97;;
26040;SDS011;13816;53.628;9.950;2022-08-21T06:41:29;11.50;;;5.73;;
26040;SDS011;13816;53.628;9.950;2022-08-21T06:43:56;10.40;;;6.00;;
26040;SDS011;13816;53.628;9.950;2022-08-21T06:46:26;10.20;;;6.00;;
26040;SDS011;13816;53.628;9.950;2022-08-21T06:48:53;7.60;;;5.23;;
26040;SDS011;13816;53.628;9.950;2022-08-21T06:51:19;12.70;;;6.00;;
26040;SDS011;13816;53.628;9.950;2022-08-21T06:53:45;10.20;;;5.30;;
26040;SDS011;13816;53.628;9.950;2022-08-21T06:56:11;11.40;;;6.53;;
26040;SDS011;13816;53.628;9.950;2022-08-21T06:58:37;7.03;;;5.20;;
26040;SDS011;13816;53.628;9.950;2022-08-21T07:01:03;11.20;;;5.57;;
26040;SDS011;13816;53.628;9.950;2022-08-21T07:03:33;10.03;;;5.10;;
26040;SDS011;13816;53.628;9.950;2022-08-21T07:06:03;11.13;;;5.13;;
26040;SDS011;13816;53.628;9.950;2022-08-21T07:08:30;7.93;;;4.60;;
26040;SDS011;13816;53.628;9.950;2022-08-21T07:10:57;10.57;;;4.00;;
26040;SDS011;13816;53.628;9.950;2022-08-21T07:13:23;14.40;;;4.10;;
26040;SDS011;13816;53.628;9.950;2022-08-21T07:15:49;15.40;;;3.77;;
26040;SDS011;13816;53.628;9.950;2022-08-21T07:18:15;8.20;;;3.30;;
26040;SDS011;13816;53.628;9.950;2022-08-21T07:20:41;9.07;;;3.60;;
26040;SDS011;13816;53.628;9.950;2022-08-21T07:23:09;13.47;;;2.70;;
26040;SDS011;13816;53.628;9.950;2022-08-21T07:25:36;5.70;;;3.20;;
26040;SDS011;13816;53.628;9.950;2022-08-21T07:28:02;9.30;;;2.80;;
26040;SDS011;13816;53.628;9.950;2022-08-21T07:30:28;4.93;;;2.60;;
26040;SDS011;13816;53.628;9.950;2022-08-21T07:32:55;6.43;;;2.33;;
26040;SDS011;13816;53.628;9.950;2022-08-21T07:35:21;10.90;;;2.83;;
26040;SDS011;13816;53.628;9.950;2022-08-21T07:37:48;4.60;;;2.40;;
26040;SDS011;13816;53.628;9.950;2022-08-21T07:40:14;4.40;;;1.70;;
26040;SDS011;13816;53.628;9.950;2022-08-21T07:42:41;17.13;;;2.80;;
26040;SDS011;13816;53.628;9.950;2022-08-21T07:45:07;6.27;;;1.60;;
26040;SDS011;13816;53.628;9.950;2022-08-21T07:47:34;7.40;;;2.27;;
26040;SDS011;13816;53.628;9.950;2022-08-21T07:50:00;5.47;;;1.90;;
26040;SDS011;13816;53.628;9.950;2022-08-21T07:52:26;5.13;;;1.77;;
26040;SDS011;13816;53.628;9.950;2022-08-21T07:54:52;6.40;;;2.20;;
26040;SDS011;13816;53.628;9.950;2022-08-21T07:57:19;6.73;;;2.10;;
26040;SDS011;13816;53.628;9.950;2022-08-21T07:59:45;4.77;;;2.07;;
26040;SDS011;13816;53.628;9.950;2022-08-21T08:02:21;5.63;;;1.70;;
26040;SDS011;13816;53.628;9.950;2022-08-21T08:04:47;8.53;;;1.83;;
26040;SDS011;13816;53.628;9.950;2022-08-21T08:07:13;6.53;;;2.30;;
26040;SDS011;13816;53.628;9.950;2022-08-21T08:09:39;7.90;;;2.57;;
26040;SDS011;13816;53.628;9.950;2022-08-21T08:12:05;7.67;;;2.20;;
26040;SDS011;13816;53.628;9.950;2022-08-21T08:14:31;6.43;;;2.40;;
26040;SDS011;13816;53.628;9.950;2022-08-21T08:16:58;5.73;;;2.27;;
26040;SDS011;13816;53.628;9.950;2022-08-21T08:19:24;5.47;;;2.20;;
26040;SDS011;13816;53.628;9.950;2022-08-21T08:21:50;5.60;;;2.30;;
26040;SDS011;13816;53.628;9.950;2022-08-21T08:24:16;8.13;;;2.43;;
26040;SDS011;13816;53.628;9.950;2022-08-21T08:26:42;9.73;;;2.00;;
26040;SDS011;13816;53.628;9.950;2022-08-21T08:29:08;6.97;;;2.53;;
26040;SDS011;13816;53.628;9.950;2022-08-21T08:31:35;9.17;;;2.67;;
26040;SDS011;13816;53.628;9.950;2022-08-21T08:34:01;4.90;;;1.90;;
26040;SDS011;13816;53.628;9.950;2022-08-21T08:36:34;6.80;;;1.90;;
26040;SDS011;13816;53.628;9.950;2022-08-21T08:39:00;7.80;;;2.30;;
26040;SDS011;13816;53.628;9.950;2022-08-21T08:41:26;9.83;;;2.83;;
26040;SDS011;13816;53.628;9.950;2022-08-21T08:43:53;10.00;;;2.20;;
26040;SDS011;13816;53.628;9.950;2022-08-21T08:46:25;9.10;;;2.67;;
26040;SDS011;13816;53.628;9.950;2022-08-21T08:48:55;12.90;;;2.47;;
26040;SDS011;13816;53.628;9.950;2022-08-21T08:51:29;6.47;;;2.17;;
26040;SDS011;13816;53.628;9.950;2022-08-21T08:54:02;7.67;;;2.10;;
26040;SDS011;13816;53.628;9.950;2022-08-21T08:56:30;9.03;;;2.50;;
26040;SDS011;13816;53.628;9.950;2022-08-21T08:58:59;7.80;;;2.87;;
26040;SDS011;13816;53.628;9.950;2022-08-21T09:01:27;7.07;;;1.97;;
26040;SDS011;13816;53.628;9.950;2022-08-21T09:03:53;5.37;;;2.00;;
26040;SDS011;13816;53.628;9.950;2022-08-21T09:06:26;10.30;;;2.70;;
26040;SDS011;13816;53.628;9.950;2022-08-21T09:08:56;8.80;;;3.33;;
26040;SDS011;13816;53.628;9.950;2022-08-21T09:19:10;11.80;;;2.75;;
26040;SDS011;13816;53.628;9.950;2022-08-21T09:21:43;7.23;;;2.27;;
26040;SDS011;13816;53.628;9.950;2022-08-21T09:27:18;9.83;;;2.27;;
26040;SDS011;13816;53.628;9.950;2022-08-21T09:29:47;11.40;;;2.40;;
26040;SDS011;13816;53.628;9.950;2022-08-21T09:32:19;9.40;;;2.97;;
26040;SDS011;13816;53.628;9.950;2022-08-21T09:34:56;6.80;;;2.70;;
26040;SDS011;13816;53.628;9.950;2022-08-21T09:37:23;10.67;;;3.17;;
26040;SDS011;13816;53.628;9.950;2022-08-21T09:39:49;11.87;;;2.50;;
26040;SDS011;13816;53.628;9.950;2022-08-21T09:42:23;7.10;;;2.90;;
26040;SDS011;13816;53.628;9.950;2022-08-21T09:45:00;8.30;;;2.40;;
26040;SDS011;13816;53.628;9.950;2022-08-21T09:47:30;9.53;;;2.63;;
26040;SDS011;13816;53.628;9.950;2022-08-21T09:49:56;7.70;;;2.70;;
26040;SDS011;13816;53.628;9.950;2022-08-21T09:52:32;11.03;;;2.67;;
26040;SDS011;13816;53.628;9.950;2022-08-21T09:54:59;5.83;;;2.07;;
26040;SDS011;13816;53.628;9.950;2022-08-21T09:57:45;7.37;;;2.83;;
26040;SDS011;13816;53.628;9.950;2022-08-21T10:00:24;5.20;;;2.17;;
26040;SDS011;13816;53.628;9.950;2022-08-21T10:02:51;11.33;;;3.13;;
26040;SDS011;13816;53.628;9.950;2022-08-21T10:05:22;11.83;;;2.93;;
26040;SDS011;13816;53.628;9.950;2022-08-21T10:07:49;7.37;;;2.70;;
26040;SDS011;13816;53.628;9.950;2022-08-21T10:10:17;8.43;;;2.77;;
26040;SDS011;13816;53.628;9.950;2022-08-21T10:28:40;7.07;;;2.80;;
26040;SDS011;13816;53.628;9.950;2022-08-21T10:34:22;5.43;;;2.03;;
26040;SDS011;13816;53.628;9.950;2022-08-21T10:47:18;10.17;;;3.23;;
26040;SDS011;13816;53.628;9.950;2022-08-21T10:55:11;5.90;;;2.10;;
26040;SDS011;13816;53.628;9.950;2022-08-21T10:57:44;6.53;;;2.30;;
26040;SDS011;13816;53.628;9.950;2022-08-21T11:00:13;6.07;;;2.40;;
26040;SDS011;13816;53.628;9.950;2022-08-21T11:07:46;10.00;;;1.80;;
26040;SDS011;13816;53.628;9.950;2022-08-21T11:10:15;7.43;;;1.83;;
26040;SDS011;13816;53.628;9.950;2022-08-21T11:12:56;4.10;;;2.17;;
26040;SDS011;13816;53.628;9.950;2022-08-21T11:18:31;6.60;;;1.93;;
26040;SDS011;13816;53.628;9.950;2022-08-21T11:21:03;4.27;;;2.00;;
26040;SDS011;13816;53.628;9.950;2022-08-21T11:23:33;5.50;;;2.13;;
26040;SDS011;13816;53.628;9.950;2022-08-21T11:26:05;5.90;;;1.80;;
26040;SDS011;13816;53.628;9.950;2022-08-21T11:28:41;6.63;;;1.93;;
26040;SDS011;13816;53.628;9.950;2022-08-21T11:33:50;7.37;;;2.20;;
26040;SDS011;13816;53.628;9.950;2022-08-21T11:36:30;6.17;;;2.00;;
26040;SDS011;13816;53.628;9.950;2022-08-21T11:39:06;4.60;;;2.50;;
26040;SDS011;13816;53.628;9.950;2022-08-21T11:41:39;3.50;;;1.60;;
26040;SDS011;13816;53.628;9.950;2022-08-21T11:44:12;5.20;;;1.97;;
26040;SDS011;13816;53.628;9.950;2022-08-21T11:46:58;4.30;;;1.90;;
26040;SDS011;13816;53.628;9.950;2022-08-21T11:52:23;2.63;;;1.53;;
26040;SDS011;13816;53.628;9.950;2022-08-21T11:54:56;4.73;;;1.97;;
26040;SDS011;13816;53.628;9.950;2022-08-21T11:57:29;9.57;;;2.70;;
26040;SDS011;13816;53.628;9.950;2022-08-21T11:59:59;5.40;;;2.07;;
26040;SDS011;13816;53.628;9.950;2022-08-21T12:02:31;5.97;;;2.50;;
26040;SDS011;13816;53.628;9.950;2022-08-21T12:05:00;2.60;;;1.67;;
26040;SDS011;13816;53.628;9.950;2022-08-21T12:07:30;4.17;;;2.13;;
26040;SDS011;13816;53.628;9.950;2022-08-21T12:09:57;8.03;;;2.40;;
26040;SDS011;13816;53.628;9.950;2022-08-21T12:12:28;5.30;;;1.80;;
26040;SDS011;13816;53.628;9.950;2022-08-21T12:17:37;4.03;;;2.20;;
26040;SDS011;13816;53.628;9.950;2022-08-21T12:20:25;5.10;;;1.90;;
26040;SDS011;13816;53.628;9.950;2022-08-21T12:22:53;5.43;;;2.13;;
26040;SDS011;13816;53.628;9.950;2022-08-21T12:25:20;3.60;;;2.10;;
26040;SDS011;13816;53.628;9.950;2022-08-21T12:32:59;5.33;;;1.80;;
26040;SDS011;13816;53.628;9.950;2022-08-21T12:35:30;5.00;;;1.87;;
26040;SDS011;13816;53.628;9.950;2022-08-21T12:38:03;3.63;;;1.63;;
26040;SDS011;13816;53.628;9.950;2022-08-21T12:40:40;3.27;;;1.63;;
26040;SDS011;13816;53.628;9.950;2022-08-21T12:43:11;3.10;;;2.00;;
26040;SDS011;13816;53.628;9.950;2022-08-21T12:45:43;5.90;;;2.63;;
26040;SDS011;13816;53.628;9.950;2022-08-21T12:50:45;9.93;;;1.97;;
26040;SDS011;13816;53.628;9.950;2022-08-21T12:55:44;4.30;;;2.10;;
26040;SDS011;13816;53.628;9.950;2022-08-21T12:58:18;3.00;;;1.57;;
26040;SDS011;13816;53.628;9.950;2022-08-21T13:00:52;2.37;;;1.50;;
26040;SDS011;13816;53.628;9.950;2022-08-21T13:03:18;4.97;;;1.67;;
26040;SDS011;13816;53.628;9.950;2022-08-21T13:05:45;3.00;;;1.60;;
26040;SDS011;13816;53.628;9.950;2022-08-21T13:08:11;2.87;;;1.30;;
26040;SDS011;13816;53.628;9.950;2022-08-21T13:10:39;4.50;;;1.60;;
26040;SDS011;13816;53.628;9.950;2022-08-21T13:13:06;3.40;;;1.30;;
26040;SDS011;13816;53.628;9.950;2022-08-21T13:15:34;2.40;;;1.37;;
26040;SDS011;13816;53.628;9.950;2022-08-21T13:18:02;3.57;;;1.57;;
26040;SDS011;13816;53.628;9.950;2022-08-21T13:20:29;2.97;;;1.80;;
26040;SDS011;13816;53.628;9.950;2022-08-21T13:22:56;5.20;;;1.60;;
26040;SDS011;13816;53.628;9.950;2022-08-21T13:25:25;3.87;;;1.53;;
26040;SDS011;13816;53.628;9.950;2022-08-21T13:28:05;2.90;;;1.57;;
26040;SDS011;13816;53.628;9.950;2022-08-21T13:30:32;3.30;;;1.50;;
26040;SDS011;13816;53.628;9.950;2022-08-21T13:32:59;3.23;;;1.67;;
26040;SDS011;13816;53.628;9.950;2022-08-21T13:35:27;4.40;;;1.67;;
26040;SDS011;13816;53.628;9.950;2022-08-21T13:37:54;3.30;;;1.83;;
26040;SDS011;13816;53.628;9.950;2022-08-21T13:41:03;3.77;;;1.50;;
26040;SDS011;13816;53.628;9.950;2022-08-21T13:43:16;3.33;;;1.73;;
26040;SDS011;13816;53.628;9.950;2022-08-21T13:45:44;2.20;;;1.13;;
26040;SDS011;13816;53.628;9.950;2022-08-21T13:48:12;3.87;;;1.50;;
26040;SDS011;13816;53.628;9.950;2022-08-21T13:50:39;4.30;;;1.70;;
26040;SDS011;13816;53.628;9.950;2022-08-21T13:53:07;5.83;;;1.60;;
26040;SDS011;13816;53.628;9.950;2022-08-21T13:55:35;4.53;;;1.50;;
26040;SDS011;13816;53.628;9.950;2022-08-21T13:58:02;7.43;;;1.60;;
26040;SDS011;13816;53.628;9.950;2022-08-21T14:00:30;2.90;;;1.40;;
26040;SDS011;13816;53.628;9.950;2022-08-21T14:03:06;4.53;;;1.73;;
26040;SDS011;13816;53.628;9.950;2022-08-21T14:05:33;5.60;;;1.90;;
26040;SDS011;13816;53.628;9.950;2022-08-21T14:10:29;1.40;;;1.30;;
26040;SDS011;13816;53.628;9.950;2022-08-21T14:13:01;3.97;;;1.80;;
26040;SDS011;13816;53.628;9.950;2022-08-21T14:15:28;3.60;;;1.60;;
26040;SDS011;13816;53.628;9.950;2022-08-21T14:18:05;2.40;;;1.43;;
26040;SDS011;13816;53.628;9.950;2022-08-21T14:20:33;3.67;;;1.50;;
26040;SDS011;13816;53.628;9.950;2022-08-21T14:22:59;5.63;;;1.60;;
26040;SDS011;13816;53.628;9.950;2022-08-21T14:30:29;4.33;;;1.33;;
26040;SDS011;13816;53.628;9.950;2022-08-21T14:32:57;3.77;;;1.30;;
26040;SDS011;13816;53.628;9.950;2022-08-21T14:35:23;2.93;;;1.67;;
26040;SDS011;13816;53.628;9.950;2022-08-21T14:37:50;2.87;;;1.43;;
26040;SDS011;13816;53.628;9.950;2022-08-21T14:40:17;3.17;;;1.33;;
26040;SDS011;13816;53.628;9.950;2022-08-21T14:42:44;3.07;;;1.63;;
26040;SDS011;13816;53.628;9.950;2022-08-21T14:45:14;4.60;;;2.00;;
26040;SDS011;13816;53.628;9.950;2022-08-21T14:47:41;4.60;;;1.60;;
26040;SDS011;13816;53.628;9.950;2022-08-21T14:50:11;8.33;;;1.60;;
26040;SDS011;13816;53.628;9.950;2022-08-21T14:52:37;6.10;;;1.70;;
26040;SDS011;13816;53.628;9.950;2022-08-21T14:55:04;4.13;;;1.53;;
26040;SDS011;13816;53.628;9.950;2022-08-21T14:57:31;3.33;;;1.20;;
26040;SDS011;13816;53.628;9.950;2022-08-21T14:59:57;6.50;;;1.83;;
26040;SDS011;13816;53.628;9.950;2022-08-21T15:02:24;2.73;;;1.40;;
26040;SDS011;13816;53.628;9.950;2022-08-21T15:04:51;7.03;;;1.70;;
26040;SDS011;13816;53.628;9.950;2022-08-21T15:07:17;3.50;;;1.47;;
26040;SDS011;13816;53.628;9.950;2022-08-21T15:09:43;5.20;;;1.50;;
26040;SDS011;13816;53.628;9.950;2022-08-21T15:12:09;6.57;;;1.40;;
26040;SDS011;13816;53.628;9.950;2022-08-21T15:14:38;1.87;;;1.43;;
26040;SDS011;13816;53.628;9.950;2022-08-21T15:17:08;4.70;;;1.70;;
26040;SDS011;13816;53.628;9.950;2022-08-21T15:19:35;5.20;;;1.33;;
26040;SDS011;13816;53.628;9.950;2022-08-21T15:22:01;2.63;;;1.40;;
26040;SDS011;13816;53.628;9.950;2022-08-21T15:24:28;5.77;;;1.20;;
26040;SDS011;13816;53.628;9.950;2022-08-21T15:26:54;2.73;;;1.40;;
26040;SDS011;13816;53.628;9.950;2022-08-21T15:29:20;1.10;;;1.00;;
26040;SDS011;13816;53.628;9.950;2022-08-21T15:32:29;4.60;;;1.87;;
26040;SDS011;13816;53.628;9.950;2022-08-21T15:34:36;5.57;;;2.33;;
26040;SDS011;13816;53.628;9.950;2022-08-21T15:37:02;6.87;;;1.77;;
26040;SDS011;13816;53.628;9.950;2022-08-21T15:39:30;3.63;;;1.20;;
26040;SDS011;13816;53.628;9.950;2022-08-21T15:41:57;5.70;;;1.60;;
26040;SDS011;13816;53.628;9.950;2022-08-21T15:44:23;4.33;;;1.60;;
26040;SDS011;13816;53.628;9.950;2022-08-21T15:46:50;5.53;;;1.80;;
26040;SDS011;13816;53.628;9.950;2022-08-21T15:49:16;5.83;;;1.60;;
26040;SDS011;13816;53.628;9.950;2022-08-21T15:51:42;2.70;;;1.50;;
26040;SDS011;13816;53.628;9.950;2022-08-21T15:54:09;4.70;;;1.83;;
26040;SDS011;13816;53.628;9.950;2022-08-21T15:56:36;7.90;;;4.17;;
26040;SDS011;13816;53.628;9.950;2022-08-21T15:59:05;3.20;;;1.93;;
26040;SDS011;13816;53.628;9.950;2022-08-21T16:01:32;6.07;;;1.67;;
26040;SDS011;13816;53.628;9.950;2022-08-21T16:03:58;3.13;;;1.43;;
26040;SDS011;13816;53.628;9.950;2022-08-21T16:06:24;6.37;;;2.37;;
26040;SDS011;13816;53.628;9.950;2022-08-21T16:08:50;3.43;;;1.70;;
26040;SDS011;13816;53.628;9.950;2022-08-21T16:11:17;4.87;;;2.47;;
26040;SDS011;13816;53.628;9.950;2022-08-21T16:13:43;3.77;;;1.30;;
26040;SDS011;13816;53.628;9.950;2022-08-21T16:16:10;4.90;;;1.30;;
26040;SDS011;13816;53.628;9.950;2022-08-21T16:18:38;15.20;;;1.50;;
26040;SDS011;13816;53.628;9.950;2022-08-21T16:21:07;2.77;;;1.00;;
26040;SDS011;13816;53.628;9.950;2022-08-21T16:23:34;3.67;;;1.53;;
26040;SDS011;13816;53.628;9.950;2022-08-21T16:26:03;2.83;;;1.30;;